Airfield :
LOGIN :

Register | Disclaimer

   EN    FR    IT 

 










Legend :    VFR   Marginal VFR   IFR   Intensive IFR   Very Intensive IFR
Visi :
Ceiling :
>= 8 km
>= 3000ft
5 to 8 km
1000 to 3000 ft
1500m to 5 km
500 to 1000 ft
800 to 1500m
200 to 500 ft
< 800m
< 200 ft
Symbols :   Thunderstorms  Fog  Heavy snow  Heavy precipitations  Wind > 20 kt
SIGMETs :     Misc.  Thunderstorms  Icing  Turbulence  Mountain Waves  Volcanic Ashes







- Airport Elevation : 529 ft
- IATA code : CHR
- Download approach charts


LFLX - Chateauroux

CURRENT METAR :
  • 231930Z AUTO 16004KT CAVOK 06/04 Q1014 TEMPO 3000 BR

EXPIRED METARs :
  • 231900Z AUTO 19003KT 9999 SCT031 BKN072 07/04 Q1013 NOSIG
  • 231830Z AUTO 18003KT 9999 OVC030 07/04 Q1013 NOSIG
  • 231800Z AUTO 20003KT 9999 FEW021 OVC031 07/04 Q1012 NOSIG
  • 231730Z AUTO 19004KT 9999 OVC030 08/04 Q1012 NOSIG
  • 231700Z AUTO 19005KT 170V230 9999 BKN018 OVC028 08/04 Q1011 TEMPO 3000 RA BKN008 BKN020TCU

TAF TAF LFLX
Valid from the 23 at 18:00 until the 25 at 00:00 UTC


231700Z 2318/2424 VRB03KT 9999 BKN020
BECMG 2319/2321 CAVOK
TEMPO 2321/2408 3000 BR
PROB40
TEMPO 2322/2408 0400 BCFG BKN002
BECMG 2408/2410 07007KT BKN012
TEMPO 2413/2416 4000 SHRA BKN008 SCT025CB
TEMPO 2421/2424 3000 BR BKN003
No reported NOTAMs for that airfield.



MET'MAP, your aeronautical weather chart ! - Copyright ORBIFLY December 2007 - Disclaimer

ORBIFLY MET'MAP TEAM :

Programming & Development : Alexandra Zaïnal
Concept & Development : Baudouin d'Aumeries
Co-Development & Prog : Marc-Olivier Méhu
Technical & hardware support : Manuel Goepfert

Contact : metmap@orbifly.com




SOURCES & CREDITS :

   NOAA